Current Weather

Southend

Southend, United Kingdom (EGMC)

Report from: Monday, September 26, 2022 3:50 AM BST
Current time: Monday, September 26, 2022 4:09 AM BST

Nearby weather
Weather history
Weather forecast

Temperature11.0°C (51.8°F)
Dew point7.0°C (44.6°F)
Winds 11 kts (5.7 m/s, 12.7 mph) West-Southwest (240°)
Visibility6.2 mi. (10 km)
Clouds Few clouds 1,700 ft. (518 m)
Scattered clouds 3,200 ft. (975 m)
Altimeter29.68 in.Hg (1005 mB)
Relative humidity76 %
Density altitude-52 ft. (-16 m)
Flight conditions Visual Meteorological Conditions
Raw dataEGMC 260250Z 24011KT 9999 FEW017 SCT032 11/07 Q1005
An error has occurred. This application may no longer respond until reloaded. Reload 🗙